sensor_id;sensor_type;location;lat;lon;timestamp;pressure;altitude;pressure_sealevel;temperature;humidity
21988;BME280;11158;53.404;-1.510;2024-02-21T00:01:05;100793.06;;;6.65;100.00
21988;BME280;11158;53.404;-1.510;2024-02-21T00:03:31;100776.50;;;6.54;100.00
21988;BME280;11158;53.404;-1.510;2024-02-21T00:05:56;100774.06;;;6.45;100.00
21988;BME280;11158;53.404;-1.510;2024-02-21T00:08:22;100767.81;;;6.48;100.00
21988;BME280;11158;53.404;-1.510;2024-02-21T00:10:47;100761.59;;;6.50;100.00
21988;BME280;11158;53.404;-1.510;2024-02-21T00:13:12;100755.56;;;6.42;100.00
21988;BME280;11158;53.404;-1.510;2024-02-21T00:15:38;100753.22;;;6.25;100.00
21988;BME280;11158;53.404;-1.510;2024-02-21T00:18:04;100760.44;;;6.17;100.00
21988;BME280;11158;53.404;-1.510;2024-02-21T00:20:30;100743.63;;;6.19;100.00
21988;BME280;11158;53.404;-1.510;2024-02-21T00:22:55;100745.50;;;6.13;100.00
21988;BME280;11158;53.404;-1.510;2024-02-21T00:25:21;100741.97;;;6.14;100.00
21988;BME280;11158;53.404;-1.510;2024-02-21T00:27:46;100740.94;;;6.22;100.00
21988;BME280;11158;53.404;-1.510;2024-02-21T00:30:12;100739.97;;;6.27;100.00
21988;BME280;11158;53.404;-1.510;2024-02-21T00:32:38;100737.50;;;6.16;100.00
21988;BME280;11158;53.404;-1.510;2024-02-21T00:35:03;100740.16;;;6.16;100.00
21988;BME280;11158;53.404;-1.510;2024-02-21T00:37:30;100740.97;;;6.21;100.00
21988;BME280;11158;53.404;-1.510;2024-02-21T00:39:56;100741.38;;;6.46;100.00
21988;BME280;11158;53.404;-1.510;2024-02-21T00:42:21;100735.25;;;6.42;100.00
21988;BME280;11158;53.404;-1.510;2024-02-21T00:44:47;100740.47;;;6.47;100.00
21988;BME280;11158;53.404;-1.510;2024-02-21T00:47:12;100739.69;;;6.42;100.00
21988;BME280;11158;53.404;-1.510;2024-02-21T00:49:37;100730.56;;;6.57;100.00
21988;BME280;11158;53.404;-1.510;2024-02-21T00:52:03;100723.34;;;6.65;100.00
21988;BME280;11158;53.404;-1.510;2024-02-21T00:54:28;100723.25;;;6.70;100.00
21988;BME280;11158;53.404;-1.510;2024-02-21T00:56:54;100726.50;;;6.82;100.00
21988;BME280;11158;53.404;-1.510;2024-02-21T00:59:19;100724.66;;;6.88;100.00
21988;BME280;11158;53.404;-1.510;2024-02-21T01:01:45;100719.47;;;6.83;100.00
21988;BME280;11158;53.404;-1.510;2024-02-21T01:04:10;100709.78;;;6.80;100.00
21988;BME280;11158;53.404;-1.510;2024-02-21T01:06:36;100693.47;;;7.00;100.00
21988;BME280;11158;53.404;-1.510;2024-02-21T01:09:01;100676.66;;;7.00;100.00
21988;BME280;11158;53.404;-1.510;2024-02-21T01:11:27;100672.88;;;7.12;100.00
21988;BME280;11158;53.404;-1.510;2024-02-21T01:13:52;100683.56;;;7.09;100.00
21988;BME280;11158;53.404;-1.510;2024-02-21T01:16:18;100674.59;;;7.14;100.00
21988;BME280;11158;53.404;-1.510;2024-02-21T01:18:43;100675.38;;;7.18;100.00
21988;BME280;11158;53.404;-1.510;2024-02-21T01:21:09;100679.72;;;7.22;100.00
21988;BME280;11158;53.404;-1.510;2024-02-21T01:23:36;100672.16;;;7.42;100.00
21988;BME280;11158;53.404;-1.510;2024-02-21T01:26:02;100652.03;;;7.34;100.00
21988;BME280;11158;53.404;-1.510;2024-02-21T01:28:28;100646.91;;;7.26;100.00
21988;BME280;11158;53.404;-1.510;2024-02-21T01:30:53;100636.28;;;7.28;100.00
21988;BME280;11158;53.404;-1.510;2024-02-21T01:33:18;100629.34;;;7.22;100.00
21988;BME280;11158;53.404;-1.510;2024-02-21T01:35:44;100624.91;;;7.22;100.00
21988;BME280;11158;53.404;-1.510;2024-02-21T01:38:10;100624.72;;;7.30;100.00
21988;BME280;11158;53.404;-1.510;2024-02-21T01:40:36;100626.34;;;7.36;100.00
21988;BME280;11158;53.404;-1.510;2024-02-21T01:43:02;100600.59;;;7.41;100.00
21988;BME280;11158;53.404;-1.510;2024-02-21T01:45:28;100589.97;;;7.42;100.00
21988;BME280;11158;53.404;-1.510;2024-02-21T01:47:53;100566.03;;;7.46;100.00
21988;BME280;11158;53.404;-1.510;2024-02-21T01:50:19;100560.34;;;7.59;100.00
21988;BME280;11158;53.404;-1.510;2024-02-21T01:52:46;100557.09;;;7.48;100.00
21988;BME280;11158;53.404;-1.510;2024-02-21T01:55:14;100548.00;;;7.57;100.00
21988;BME280;11158;53.404;-1.510;2024-02-21T01:57:41;100545.47;;;7.54;100.00
21988;BME280;11158;53.404;-1.510;2024-02-21T02:00:09;100552.34;;;7.61;100.00
21988;BME280;11158;53.404;-1.510;2024-02-21T02:02:35;100540.81;;;7.62;100.00
21988;BME280;11158;53.404;-1.510;2024-02-21T02:05:03;100532.25;;;7.52;100.00
21988;BME280;11158;53.404;-1.510;2024-02-21T02:07:31;100523.28;;;7.56;100.00
21988;BME280;11158;53.404;-1.510;2024-02-21T02:09:56;100529.44;;;7.57;100.00
21988;BME280;11158;53.404;-1.510;2024-02-21T02:12:22;100524.84;;;7.63;100.00
21988;BME280;11158;53.404;-1.510;2024-02-21T02:15:00;100523.84;;;7.68;100.00
21988;BME280;11158;53.404;-1.510;2024-02-21T02:17:26;100518.56;;;7.68;100.00
21988;BME280;11158;53.404;-1.510;2024-02-21T02:19:51;100517.75;;;7.64;100.00
21988;BME280;11158;53.404;-1.510;2024-02-21T02:22:21;100514.22;;;7.65;100.00
21988;BME280;11158;53.404;-1.510;2024-02-21T02:24:47;100500.78;;;7.71;100.00
21988;BME280;11158;53.404;-1.510;2024-02-21T02:27:13;100491.94;;;7.71;100.00
21988;BME280;11158;53.404;-1.510;2024-02-21T02:29:38;100489.31;;;7.71;100.00
21988;BME280;11158;53.404;-1.510;2024-02-21T02:32:04;100482.91;;;7.78;100.00
21988;BME280;11158;53.404;-1.510;2024-02-21T02:34:29;100483.72;;;7.80;100.00
21988;BME280;11158;53.404;-1.510;2024-02-21T02:36:55;100481.88;;;7.84;100.00
21988;BME280;11158;53.404;-1.510;2024-02-21T02:39:21;100468.69;;;7.80;100.00
21988;BME280;11158;53.404;-1.510;2024-02-21T02:41:46;100466.63;;;7.90;100.00
21988;BME280;11158;53.404;-1.510;2024-02-21T02:44:12;100451.66;;;7.88;100.00
21988;BME280;11158;53.404;-1.510;2024-02-21T02:46:39;100450.84;;;7.86;100.00
21988;BME280;11158;53.404;-1.510;2024-02-21T02:49:05;100447.25;;;7.87;100.00
21988;BME280;11158;53.404;-1.510;2024-02-21T02:51:30;100439.25;;;7.88;100.00
21988;BME280;11158;53.404;-1.510;2024-02-21T02:53:56;100428.50;;;7.93;100.00
21988;BME280;11158;53.404;-1.510;2024-02-21T02:56:22;100414.56;;;7.86;100.00
21988;BME280;11158;53.404;-1.510;2024-02-21T02:58:47;100412.75;;;7.87;100.00
21988;BME280;11158;53.404;-1.510;2024-02-21T03:01:13;100394.97;;;7.90;100.00
21988;BME280;11158;53.404;-1.510;2024-02-21T03:03:40;100386.03;;;7.93;100.00
21988;BME280;11158;53.404;-1.510;2024-02-21T03:06:05;100378.03;;;7.94;100.00
21988;BME280;11158;53.404;-1.510;2024-02-21T03:08:31;100375.41;;;7.93;100.00
21988;BME280;11158;53.404;-1.510;2024-02-21T03:10:57;100363.69;;;8.00;100.00
21988;BME280;11158;53.404;-1.510;2024-02-21T03:13:24;100345.03;;;8.03;100.00
21988;BME280;11158;53.404;-1.510;2024-02-21T03:15:50;100339.53;;;8.09;100.00
21988;BME280;11158;53.404;-1.510;2024-02-21T03:18:15;100325.44;;;8.07;100.00
21988;BME280;11158;53.404;-1.510;2024-02-21T03:20:41;100331.53;;;8.11;100.00
21988;BME280;11158;53.404;-1.510;2024-02-21T03:23:07;100315.53;;;8.12;100.00
21988;BME280;11158;53.404;-1.510;2024-02-21T03:25:32;100312.72;;;8.17;100.00
21988;BME280;11158;53.404;-1.510;2024-02-21T03:27:57;100309.97;;;8.20;100.00
21988;BME280;11158;53.404;-1.510;2024-02-21T03:30:23;100299.31;;;8.21;100.00
21988;BME280;11158;53.404;-1.510;2024-02-21T03:32:48;100287.88;;;8.19;100.00
21988;BME280;11158;53.404;-1.510;2024-02-21T03:35:14;100280.78;;;8.20;100.00
21988;BME280;11158;53.404;-1.510;2024-02-21T03:37:39;100269.19;;;8.23;100.00
21988;BME280;11158;53.404;-1.510;2024-02-21T03:40:11;100253.19;;;8.24;100.00
21988;BME280;11158;53.404;-1.510;2024-02-21T03:42:37;100248.66;;;8.28;100.00
21988;BME280;11158;53.404;-1.510;2024-02-21T03:45:03;100244.22;;;8.28;100.00
21988;BME280;11158;53.404;-1.510;2024-02-21T03:47:29;100232.72;;;8.28;100.00
21988;BME280;11158;53.404;-1.510;2024-02-21T03:49:54;100219.41;;;8.29;100.00
21988;BME280;11158;53.404;-1.510;2024-02-21T03:52:20;100199.03;;;8.30;100.00
21988;BME280;11158;53.404;-1.510;2024-02-21T03:54:45;100196.38;;;8.30;100.00
21988;BME280;11158;53.404;-1.510;2024-02-21T03:57:11;100195.44;;;8.31;100.00
21988;BME280;11158;53.404;-1.510;2024-02-21T03:59:36;100181.25;;;8.32;100.00
21988;BME280;11158;53.404;-1.510;2024-02-21T04:02:01;100183.00;;;8.33;100.00
21988;BME280;11158;53.404;-1.510;2024-02-21T04:04:29;100177.69;;;8.33;100.00
21988;BME280;11158;53.404;-1.510;2024-02-21T04:06:54;100165.31;;;8.32;100.00
21988;BME280;11158;53.404;-1.510;2024-02-21T04:09:20;100157.28;;;8.33;100.00
21988;BME280;11158;53.404;-1.510;2024-02-21T04:11:45;100148.53;;;8.31;100.00
21988;BME280;11158;53.404;-1.510;2024-02-21T04:14:11;100152.00;;;8.33;100.00
21988;BME280;11158;53.404;-1.510;2024-02-21T04:16:39;100149.28;;;8.35;100.00
21988;BME280;11158;53.404;-1.510;2024-02-21T04:19:04;100144.78;;;8.37;100.00
21988;BME280;11158;53.404;-1.510;2024-02-21T04:21:30;100134.03;;;8.40;100.00
21988;BME280;11158;53.404;-1.510;2024-02-21T04:23:55;100132.41;;;8.36;100.00
21988;BME280;11158;53.404;-1.510;2024-02-21T04:26:21;100126.06;;;8.40;100.00
21988;BME280;11158;53.404;-1.510;2024-02-21T04:28:46;100114.56;;;8.39;100.00
21988;BME280;11158;53.404;-1.510;2024-02-21T04:31:12;100116.28;;;8.42;100.00
21988;BME280;11158;53.404;-1.510;2024-02-21T04:33:37;100114.63;;;8.38;100.00
21988;BME280;11158;53.404;-1.510;2024-02-21T04:36:03;100106.66;;;8.38;100.00
21988;BME280;11158;53.404;-1.510;2024-02-21T04:38:28;100101.31;;;8.39;100.00
21988;BME280;11158;53.404;-1.510;2024-02-21T04:40:55;100089.72;;;8.42;100.00
21988;BME280;11158;53.404;-1.510;2024-02-21T04:43:24;100080.91;;;8.42;100.00
21988;BME280;11158;53.404;-1.510;2024-02-21T04:45:49;100073.78;;;8.42;100.00
21988;BME280;11158;53.404;-1.510;2024-02-21T04:48:15;100057.97;;;8.39;100.00
21988;BME280;11158;53.404;-1.510;2024-02-21T04:50:41;100049.03;;;8.40;100.00
21988;BME280;11158;53.404;-1.510;2024-02-21T04:53:06;100056.09;;;8.41;100.00
21988;BME280;11158;53.404;-1.510;2024-02-21T04:55:31;100059.66;;;8.42;100.00
21988;BME280;11158;53.404;-1.510;2024-02-21T04:57:57;100046.41;;;8.40;100.00
21988;BME280;11158;53.404;-1.510;2024-02-21T05:00:22;100044.69;;;8.39;100.00
21988;BME280;11158;53.404;-1.510;2024-02-21T05:02:48;100019.84;;;8.40;100.00
21988;BME280;11158;53.404;-1.510;2024-02-21T05:05:13;100008.56;;;8.35;100.00
21988;BME280;11158;53.404;-1.510;2024-02-21T05:07:40;100002.25;;;8.37;100.00
21988;BME280;11158;53.404;-1.510;2024-02-21T05:10:07;99995.19;;;8.36;100.00
21988;BME280;11158;53.404;-1.510;2024-02-21T05:12:32;99982.81;;;8.37;100.00
21988;BME280;11158;53.404;-1.510;2024-02-21T05:14:58;99976.53;;;8.38;100.00
21988;BME280;11158;53.404;-1.510;2024-02-21T05:17:23;99961.66;;;8.34;100.00
21988;BME280;11158;53.404;-1.510;2024-02-21T05:19:49;99962.31;;;8.40;100.00
21988;BME280;11158;53.404;-1.510;2024-02-21T05:22:14;99950.00;;;8.38;100.00
21988;BME280;11158;53.404;-1.510;2024-02-21T05:24:39;99941.13;;;8.39;100.00
21988;BME280;11158;53.404;-1.510;2024-02-21T05:27:05;99928.63;;;8.43;100.00
21988;BME280;11158;53.404;-1.510;2024-02-21T05:29:31;99922.59;;;8.37;100.00
21988;BME280;11158;53.404;-1.510;2024-02-21T05:31:56;99918.34;;;8.33;100.00
21988;BME280;11158;53.404;-1.510;2024-02-21T05:34:25;99918.28;;;8.35;100.00
21988;BME280;11158;53.404;-1.510;2024-02-21T05:36:51;99901.41;;;8.36;100.00
21988;BME280;11158;53.404;-1.510;2024-02-21T05:39:17;99882.81;;;8.36;100.00
21988;BME280;11158;53.404;-1.510;2024-02-21T05:41:42;99880.97;;;8.38;100.00
21988;BME280;11158;53.404;-1.510;2024-02-21T05:44:08;99864.38;;;8.33;100.00
21988;BME280;11158;53.404;-1.510;2024-02-21T05:46:33;99859.88;;;8.35;100.00
21988;BME280;11158;53.404;-1.510;2024-02-21T05:48:59;99855.41;;;8.35;100.00
21988;BME280;11158;53.404;-1.510;2024-02-21T05:51:24;99855.53;;;8.32;100.00
21988;BME280;11158;53.404;-1.510;2024-02-21T05:53:50;99842.31;;;8.31;100.00
21988;BME280;11158;53.404;-1.510;2024-02-21T05:56:15;99838.63;;;8.35;100.00
21988;BME280;11158;53.404;-1.510;2024-02-21T05:58:42;99835.22;;;8.31;100.00
21988;BME280;11158;53.404;-1.510;2024-02-21T06:01:08;99826.25;;;8.34;100.00
21988;BME280;11158;53.404;-1.510;2024-02-21T06:03:33;99817.50;;;8.32;100.00
21988;BME280;11158;53.404;-1.510;2024-02-21T06:06:00;99805.97;;;8.33;100.00
21988;BME280;11158;53.404;-1.510;2024-02-21T06:08:26;99799.72;;;8.34;100.00
21988;BME280;11158;53.404;-1.510;2024-02-21T06:10:51;99796.19;;;8.33;100.00
21988;BME280;11158;53.404;-1.510;2024-02-21T06:13:28;99782.97;;;8.32;100.00
21988;BME280;11158;53.404;-1.510;2024-02-21T06:15:54;99774.91;;;8.35;100.00
21988;BME280;11158;53.404;-1.510;2024-02-21T06:18:20;99765.47;;;8.28;100.00
21988;BME280;11158;53.404;-1.510;2024-02-21T06:20:46;99778.72;;;8.28;100.00
21988;BME280;11158;53.404;-1.510;2024-02-21T06:23:12;99768.13;;;8.28;100.00
21988;BME280;11158;53.404;-1.510;2024-02-21T06:25:38;99759.47;;;8.23;100.00
21988;BME280;11158;53.404;-1.510;2024-02-21T06:28:04;99754.16;;;8.23;100.00
21988;BME280;11158;53.404;-1.510;2024-02-21T06:30:30;99763.13;;;8.20;100.00
21988;BME280;11158;53.404;-1.510;2024-02-21T06:32:55;99762.44;;;8.15;100.00
21988;BME280;11158;53.404;-1.510;2024-02-21T06:35:21;99737.81;;;8.11;100.00
21988;BME280;11158;53.404;-1.510;2024-02-21T06:37:47;99738.78;;;8.10;100.00
21988;BME280;11158;53.404;-1.510;2024-02-21T06:40:16;99740.69;;;8.07;100.00
21988;BME280;11158;53.404;-1.510;2024-02-21T06:42:42;99732.78;;;8.05;100.00
21988;BME280;11158;53.404;-1.510;2024-02-21T06:45:07;99727.75;;;7.99;100.00
21988;BME280;11158;53.404;-1.510;2024-02-21T06:47:33;99714.47;;;7.99;100.00
21988;BME280;11158;53.404;-1.510;2024-02-21T06:49:58;99704.97;;;7.93;100.00
21988;BME280;11158;53.404;-1.510;2024-02-21T06:52:23;99700.66;;;7.91;100.00
21988;BME280;11158;53.404;-1.510;2024-02-21T06:54:50;99702.75;;;7.82;100.00
21988;BME280;11158;53.404;-1.510;2024-02-21T06:57:15;99700.97;;;7.83;100.00
21988;BME280;11158;53.404;-1.510;2024-02-21T06:59:41;99680.06;;;7.75;100.00
21988;BME280;11158;53.404;-1.510;2024-02-21T07:02:07;99677.63;;;7.71;100.00
21988;BME280;11158;53.404;-1.510;2024-02-21T07:04:33;99666.28;;;7.67;100.00
21988;BME280;11158;53.404;-1.510;2024-02-21T07:06:58;99649.69;;;7.62;100.00
21988;BME280;11158;53.404;-1.510;2024-02-21T07:09:24;99658.75;;;7.56;100.00
21988;BME280;11158;53.404;-1.510;2024-02-21T07:11:49;99644.69;;;7.54;100.00
21988;BME280;11158;53.404;-1.510;2024-02-21T07:14:15;99644.00;;;7.49;100.00
21988;BME280;11158;53.404;-1.510;2024-02-21T07:16:41;99634.41;;;7.47;100.00
21988;BME280;11158;53.404;-1.510;2024-02-21T07:19:06;99634.47;;;7.45;100.00
21988;BME280;11158;53.404;-1.510;2024-02-21T07:21:32;99629.31;;;7.42;100.00
21988;BME280;11158;53.404;-1.510;2024-02-21T07:23:57;99615.09;;;7.43;100.00
21988;BME280;11158;53.404;-1.510;2024-02-21T07:26:23;99615.06;;;7.45;100.00
21988;BME280;11158;53.404;-1.510;2024-02-21T07:28:48;99601.75;;;7.46;100.00
21988;BME280;11158;53.404;-1.510;2024-02-21T07:31:13;99583.25;;;7.45;100.00
21988;BME280;11158;53.404;-1.510;2024-02-21T07:33:39;99577.09;;;7.44;100.00
21988;BME280;11158;53.404;-1.510;2024-02-21T07:36:10;99573.44;;;7.47;100.00
21988;BME280;11158;53.404;-1.510;2024-02-21T07:38:36;99578.94;;;7.42;100.00
21988;BME280;11158;53.404;-1.510;2024-02-21T07:41:01;99562.09;;;7.43;100.00
21988;BME280;11158;53.404;-1.510;2024-02-21T07:43:26;99572.63;;;7.45;100.00
21988;BME280;11158;53.404;-1.510;2024-02-21T07:45:52;99548.97;;;7.40;100.00
21988;BME280;11158;53.404;-1.510;2024-02-21T07:48:21;99545.50;;;7.38;100.00
21988;BME280;11158;53.404;-1.510;2024-02-21T07:50:50;99526.72;;;7.44;100.00
21988;BME280;11158;53.404;-1.510;2024-02-21T07:53:15;99535.47;;;7.46;100.00
21988;BME280;11158;53.404;-1.510;2024-02-21T07:55:41;99523.13;;;7.45;100.00
21988;BME280;11158;53.404;-1.510;2024-02-21T07:58:06;99527.34;;;7.49;100.00
21988;BME280;11158;53.404;-1.510;2024-02-21T08:00:32;99503.25;;;7.55;100.00
21988;BME280;11158;53.404;-1.510;2024-02-21T08:02:58;99502.31;;;7.56;100.00
21988;BME280;11158;53.404;-1.510;2024-02-21T08:05:23;99497.84;;;7.57;100.00
21988;BME280;11158;53.404;-1.510;2024-02-21T08:07:49;99487.25;;;7.57;100.00
21988;BME280;11158;53.404;-1.510;2024-02-21T08:10:15;99484.59;;;7.57;100.00
21988;BME280;11158;53.404;-1.510;2024-02-21T08:12:40;99468.78;;;7.55;100.00
21988;BME280;11158;53.404;-1.510;2024-02-21T08:15:06;99456.38;;;7.56;100.00
21988;BME280;11158;53.404;-1.510;2024-02-21T08:17:33;99448.34;;;7.57;100.00
21988;BME280;11158;53.404;-1.510;2024-02-21T08:19:59;99456.03;;;7.63;100.00
21988;BME280;11158;53.404;-1.510;2024-02-21T08:22:24;99456.81;;;7.66;100.00
21988;BME280;11158;53.404;-1.510;2024-02-21T08:24:50;99445.44;;;7.63;100.00
21988;BME280;11158;53.404;-1.510;2024-02-21T08:27:15;99424.16;;;7.65;100.00
21988;BME280;11158;53.404;-1.510;2024-02-21T08:29:40;99420.28;;;7.72;100.00
21988;BME280;11158;53.404;-1.510;2024-02-21T08:32:06;99422.94;;;7.72;100.00
21988;BME280;11158;53.404;-1.510;2024-02-21T08:34:31;99391.91;;;7.74;100.00
21988;BME280;11158;53.404;-1.510;2024-02-21T08:36:59;99388.19;;;7.78;100.00
21988;BME280;11158;53.404;-1.510;2024-02-21T08:39:25;99383.78;;;7.77;100.00
21988;BME280;11158;53.404;-1.510;2024-02-21T08:41:51;99379.13;;;7.82;100.00
21988;BME280;11158;53.404;-1.510;2024-02-21T08:44:16;99362.50;;;7.79;100.00
21988;BME280;11158;53.404;-1.510;2024-02-21T08:46:42;99355.25;;;7.82;100.00
21988;BME280;11158;53.404;-1.510;2024-02-21T08:49:07;99352.38;;;7.87;100.00
21988;BME280;11158;53.404;-1.510;2024-02-21T08:51:33;99342.59;;;7.89;100.00
21988;BME280;11158;53.404;-1.510;2024-02-21T08:53:58;99346.88;;;7.92;100.00
21988;BME280;11158;53.404;-1.510;2024-02-21T08:56:25;99336.25;;;7.92;100.00
21988;BME280;11158;53.404;-1.510;2024-02-21T08:58:50;99319.50;;;7.91;100.00
21988;BME280;11158;53.404;-1.510;2024-02-21T09:01:16;99308.00;;;7.91;100.00
21988;BME280;11158;53.404;-1.510;2024-02-21T09:03:41;99303.41;;;7.94;100.00
21988;BME280;11158;53.404;-1.510;2024-02-21T09:06:07;99293.50;;;7.98;100.00
21988;BME280;11158;53.404;-1.510;2024-02-21T09:08:33;99290.84;;;7.98;100.00
21988;BME280;11158;53.404;-1.510;2024-02-21T09:11:02;99279.41;;;7.97;100.00
21988;BME280;11158;53.404;-1.510;2024-02-21T09:13:28;99278.44;;;7.98;100.00
21988;BME280;11158;53.404;-1.510;2024-02-21T09:15:54;99267.69;;;8.01;100.00
21988;BME280;11158;53.404;-1.510;2024-02-21T09:18:19;99245.75;;;7.98;100.00
21988;BME280;11158;53.404;-1.510;2024-02-21T09:20:45;99232.34;;;8.01;100.00
21988;BME280;11158;53.404;-1.510;2024-02-21T09:23:10;99245.69;;;7.99;100.00
21988;BME280;11158;53.404;-1.510;2024-02-21T09:25:36;99236.56;;;8.05;100.00
21988;BME280;11158;53.404;-1.510;2024-02-21T09:28:01;99220.72;;;8.04;100.00
21988;BME280;11158;53.404;-1.510;2024-02-21T09:30:27;99210.88;;;8.06;100.00
21988;BME280;11158;53.404;-1.510;2024-02-21T09:32:53;99192.16;;;8.09;100.00
21988;BME280;11158;53.404;-1.510;2024-02-21T09:35:18;99190.28;;;8.11;100.00
21988;BME280;11158;53.404;-1.510;2024-02-21T09:37:44;99181.28;;;8.13;100.00
21988;BME280;11158;53.404;-1.510;2024-02-21T09:40:09;99161.78;;;8.14;100.00
21988;BME280;11158;53.404;-1.510;2024-02-21T09:42:39;99159.06;;;8.16;100.00
21988;BME280;11158;53.404;-1.510;2024-02-21T09:45:08;99139.59;;;8.15;100.00
21988;BME280;11158;53.404;-1.510;2024-02-21T09:50:49;99124.25;;;8.22;100.00
21988;BME280;11158;53.404;-1.510;2024-02-21T09:53:15;99108.94;;;8.27;100.00
21988;BME280;11158;53.404;-1.510;2024-02-21T09:55:42;99101.81;;;8.28;100.00
21988;BME280;11158;53.404;-1.510;2024-02-21T09:58:08;99092.84;;;8.30;100.00
21988;BME280;11158;53.404;-1.510;2024-02-21T10:00:37;99068.59;;;8.36;100.00
21988;BME280;11158;53.404;-1.510;2024-02-21T10:03:03;99075.66;;;8.37;100.00
21988;BME280;11158;53.404;-1.510;2024-02-21T10:05:37;99072.91;;;8.39;100.00
21988;BME280;11158;53.404;-1.510;2024-02-21T10:08:06;99071.91;;;8.42;100.00
21988;BME280;11158;53.404;-1.510;2024-02-21T10:10:44;99064.63;;;8.45;100.00
21988;BME280;11158;53.404;-1.510;2024-02-21T10:13:10;99045.97;;;8.47;100.00
21988;BME280;11158;53.404;-1.510;2024-02-21T10:15:36;99038.94;;;8.46;100.00
21988;BME280;11158;53.404;-1.510;2024-02-21T10:18:02;99013.84;;;8.51;100.00
21988;BME280;11158;53.404;-1.510;2024-02-21T10:20:29;99017.47;;;8.50;100.00
21988;BME280;11158;53.404;-1.510;2024-02-21T10:23:06;99008.63;;;8.50;100.00
21988;BME280;11158;53.404;-1.510;2024-02-21T10:25:35;98996.81;;;8.55;100.00
21988;BME280;11158;53.404;-1.510;2024-02-21T10:28:06;98987.81;;;8.58;100.00
21988;BME280;11158;53.404;-1.510;2024-02-21T10:30:32;98971.19;;;8.54;100.00
21988;BME280;11158;53.404;-1.510;2024-02-21T10:32:57;98953.03;;;8.63;100.00
21988;BME280;11158;53.404;-1.510;2024-02-21T10:35:32;98961.84;;;8.63;100.00
21988;BME280;11158;53.404;-1.510;2024-02-21T10:37:59;98958.53;;;8.59;100.00
21988;BME280;11158;53.404;-1.510;2024-02-21T10:40:25;98951.91;;;8.67;100.00
21988;BME280;11158;53.404;-1.510;2024-02-21T10:42:56;98952.94;;;8.64;100.00
21988;BME280;11158;53.404;-1.510;2024-02-21T10:45:27;98940.34;;;8.68;100.00
21988;BME280;11158;53.404;-1.510;2024-02-21T10:47:56;98945.75;;;8.66;100.00
21988;BME280;11158;53.404;-1.510;2024-02-21T10:50:25;98941.97;;;8.70;100.00
21988;BME280;11158;53.404;-1.510;2024-02-21T10:52:57;98929.66;;;8.69;100.00
21988;BME280;11158;53.404;-1.510;2024-02-21T10:55:35;98918.66;;;8.75;100.00
21988;BME280;11158;53.404;-1.510;2024-02-21T10:58:03;98908.97;;;8.74;100.00
21988;BME280;11158;53.404;-1.510;2024-02-21T11:00:30;98897.50;;;8.74;100.00
21988;BME280;11158;53.404;-1.510;2024-02-21T11:02:57;98890.38;;;8.74;100.00
21988;BME280;11158;53.404;-1.510;2024-02-21T11:05:24;98876.16;;;8.75;100.00
21988;BME280;11158;53.404;-1.510;2024-02-21T11:07:51;98872.81;;;8.72;100.00
21988;BME280;11158;53.404;-1.510;2024-02-21T11:10:24;98864.69;;;8.75;100.00
21988;BME280;11158;53.404;-1.510;2024-02-21T11:13:04;98871.69;;;8.76;100.00
21988;BME280;11158;53.404;-1.510;2024-02-21T11:15:30;98845.13;;;8.76;100.00
21988;BME280;11158;53.404;-1.510;2024-02-21T11:17:56;98852.16;;;8.77;100.00
21988;BME280;11158;53.404;-1.510;2024-02-21T11:20:32;98843.44;;;8.75;100.00
21988;BME280;11158;53.404;-1.510;2024-02-21T11:22:58;98839.56;;;8.81;100.00
21988;BME280;11158;53.404;-1.510;2024-02-21T11:25:23;98842.22;;;8.81;100.00
21988;BME280;11158;53.404;-1.510;2024-02-21T11:27:49;98832.44;;;8.81;100.00
21988;BME280;11158;53.404;-1.510;2024-02-21T11:30:14;98834.06;;;8.84;100.00
21988;BME280;11158;53.404;-1.510;2024-02-21T11:32:41;98827.91;;;8.83;100.00
21988;BME280;11158;53.404;-1.510;2024-02-21T11:35:07;98800.28;;;8.86;100.00
21988;BME280;11158;53.404;-1.510;2024-02-21T11:37:33;98807.03;;;8.91;100.00
21988;BME280;11158;53.404;-1.510;2024-02-21T11:40:02;98804.28;;;8.93;100.00
21988;BME280;11158;53.404;-1.510;2024-02-21T11:42:29;98790.72;;;8.97;100.00
21988;BME280;11158;53.404;-1.510;2024-02-21T11:44:56;98781.81;;;8.98;100.00
21988;BME280;11158;53.404;-1.510;2024-02-21T11:47:22;98761.22;;;9.02;100.00
21988;BME280;11158;53.404;-1.510;2024-02-21T11:49:48;98765.13;;;9.11;100.00
21988;BME280;11158;53.404;-1.510;2024-02-21T11:52:16;98746.31;;;9.14;100.00
21988;BME280;11158;53.404;-1.510;2024-02-21T11:54:44;98731.03;;;9.17;100.00
21988;BME280;11158;53.404;-1.510;2024-02-21T11:57:10;98744.22;;;9.19;100.00
21988;BME280;11158;53.404;-1.510;2024-02-21T11:59:39;98729.03;;;9.21;100.00
21988;BME280;11158;53.404;-1.510;2024-02-21T12:02:05;98717.06;;;9.28;100.00
21988;BME280;11158;53.404;-1.510;2024-02-21T12:04:31;98693.91;;;9.30;100.00
21988;BME280;11158;53.404;-1.510;2024-02-21T12:06:57;98705.28;;;9.32;100.00
21988;BME280;11158;53.404;-1.510;2024-02-21T12:09:24;98697.00;;;9.37;100.00
21988;BME280;11158;53.404;-1.510;2024-02-21T12:12:03;98648.78;;;9.43;100.00
21988;BME280;11158;53.404;-1.510;2024-02-21T12:14:31;98641.53;;;9.45;100.00
21988;BME280;11158;53.404;-1.510;2024-02-21T12:16:58;98619.94;;;9.50;100.00
21988;BME280;11158;53.404;-1.510;2024-02-21T12:19:24;98618.13;;;9.50;100.00
21988;BME280;11158;53.404;-1.510;2024-02-21T12:21:50;98615.09;;;9.56;100.00
21988;BME280;11158;53.404;-1.510;2024-02-21T12:24:17;98613.63;;;9.65;100.00
21988;BME280;11158;53.404;-1.510;2024-02-21T12:26:48;98600.88;;;9.70;100.00
21988;BME280;11158;53.404;-1.510;2024-02-21T12:29:13;98608.84;;;9.70;100.00
21988;BME280;11158;53.404;-1.510;2024-02-21T12:31:39;98589.91;;;9.75;100.00
21988;BME280;11158;53.404;-1.510;2024-02-21T12:34:05;98598.66;;;9.90;100.00
21988;BME280;11158;53.404;-1.510;2024-02-21T12:36:36;98590.16;;;9.85;100.00
21988;BME280;11158;53.404;-1.510;2024-02-21T12:39:05;98584.19;;;9.94;100.00
21988;BME280;11158;53.404;-1.510;2024-02-21T12:41:31;98580.06;;;10.03;100.00
21988;BME280;11158;53.404;-1.510;2024-02-21T12:43:58;98590.63;;;10.04;100.00